createdAt,value
2023-04-18T00:00:20.764Z,99169.75
2023-04-18T00:02:55.270Z,99172.97
2023-04-18T00:05:30.524Z,99164.78
2023-04-18T00:08:05.143Z,99172.16
2023-04-18T00:10:38.134Z,99174.75
2023-04-18T00:13:12.274Z,99174.50
2023-04-18T00:15:46.399Z,99183.13
2023-04-18T00:18:19.537Z,99169.97
2023-04-18T00:20:54.351Z,99177.38
2023-04-18T00:23:28.333Z,99182.25
2023-04-18T00:26:01.331Z,99179.00
2023-04-18T00:28:34.319Z,99186.19
2023-04-18T00:31:07.253Z,99184.66
2023-04-18T00:33:40.444Z,99182.97
2023-04-18T00:36:15.174Z,99177.72
2023-04-18T00:38:48.252Z,99183.78
2023-04-18T00:41:25.535Z,99185.38
2023-04-18T00:43:58.464Z,99188.50
2023-04-18T00:46:31.565Z,99177.63
2023-04-18T00:49:04.898Z,99173.44
2023-04-18T00:51:39.898Z,99169.06
2023-04-18T00:54:13.684Z,99167.09
2023-04-18T00:56:46.948Z,99162.28
2023-04-18T00:59:20.396Z,99168.31
2023-04-18T01:01:53.826Z,99165.03
2023-04-18T01:04:27.446Z,99162.09
2023-04-18T01:07:02.618Z,99161.25
2023-04-18T01:09:35.728Z,99160.69
2023-04-18T01:12:14.458Z,99156.56
2023-04-18T01:14:47.731Z,99165.53
2023-04-18T01:17:23.339Z,99166.50
2023-04-18T01:19:56.771Z,99168.47
2023-04-18T01:22:32.064Z,99162.63
2023-04-18T01:25:10.853Z,99164.91
2023-04-18T01:27:43.860Z,99168.03
2023-04-18T01:30:17.227Z,99171.00
2023-04-18T01:32:50.380Z,99164.19
2023-04-18T01:35:23.273Z,99165.50
2023-04-18T01:37:56.374Z,99166.28
2023-04-18T01:40:31.353Z,99171.88
2023-04-18T01:43:04.647Z,99173.56
2023-04-18T01:45:37.829Z,99174.09
2023-04-18T01:48:11.288Z,99167.88
2023-04-18T01:50:44.190Z,99164.47
2023-04-18T01:53:17.697Z,99173.13
2023-04-18T01:55:51.980Z,99174.75
2023-04-18T01:58:25.401Z,99170.28
2023-04-18T02:00:58.708Z,99174.25
2023-04-18T02:03:32.248Z,99168.09
2023-04-18T02:06:05.982Z,99171.88
2023-04-18T02:08:39.032Z,99175.78
2023-04-18T02:11:13.309Z,99181.81
2023-04-18T02:13:46.958Z,99189.00
2023-04-18T02:16:20.220Z,99185.03
2023-04-18T02:18:53.844Z,99191.75
2023-04-18T02:21:26.832Z,99191.25
2023-04-18T02:23:59.824Z,99186.97
2023-04-18T02:26:34.392Z,99182.94
2023-04-18T02:29:07.412Z,99188.28
2023-04-18T02:31:41.728Z,99187.53
2023-04-18T02:34:15.253Z,99186.91
2023-04-18T02:36:48.275Z,99191.03
2023-04-18T02:39:21.816Z,99187.72
2023-04-18T02:41:56.166Z,99187.72
2023-04-18T02:44:29.311Z,99185.09
2023-04-18T02:47:02.471Z,99187.75
2023-04-18T02:49:35.891Z,99184.03
2023-04-18T02:52:08.853Z,99185.75
2023-04-18T02:54:41.812Z,99190.94
2023-04-18T02:57:16.022Z,99193.91
2023-04-18T02:59:48.922Z,99192.31
2023-04-18T03:02:22.177Z,99183.66
2023-04-18T03:04:56.425Z,99187.72
2023-04-18T03:07:30.946Z,99179.59
2023-04-18T03:10:04.137Z,99182.06
2023-04-18T03:12:40.037Z,99181.28
2023-04-18T03:15:13.329Z,99182.34
2023-04-18T03:17:47.029Z,99188.75
2023-04-18T03:20:20.419Z,99194.75
2023-04-18T03:22:53.703Z,99189.41
2023-04-18T03:25:26.628Z,99191.38
2023-04-18T03:28:01.152Z,99195.03
2023-04-18T03:30:34.300Z,99200.22
2023-04-18T03:33:07.940Z,99197.31
2023-04-18T03:35:41.129Z,99200.66
2023-04-18T03:38:15.972Z,99205.72
2023-04-18T03:40:49.158Z,99209.75
2023-04-18T03:43:23.551Z,99208.94
2023-04-18T03:45:56.825Z,99206.44
2023-04-18T03:48:30.583Z,99212.28
2023-04-18T03:51:03.808Z,99204.72
2023-04-18T03:53:36.880Z,99213.84
2023-04-18T03:56:09.826Z,99208.19
2023-04-18T03:58:44.221Z,99214.81
2023-04-18T04:01:17.253Z,99218.63
2023-04-18T04:03:50.644Z,99217.78
2023-04-18T04:06:24.129Z,99215.50
2023-04-18T04:08:57.292Z,99220.16
2023-04-18T04:11:30.422Z,99213.84
2023-04-18T04:14:05.153Z,99222.97
2023-04-18T04:16:38.978Z,99222.81
2023-04-18T04:19:12.584Z,99224.94
2023-04-18T04:21:45.745Z,99235.75
2023-04-18T04:24:18.713Z,99237.56
2023-04-18T04:26:51.832Z,99233.63
2023-04-18T04:29:26.393Z,99246.50
2023-04-18T04:31:59.797Z,99243.59
2023-04-18T04:34:34.463Z,99243.88
2023-04-18T04:37:08.133Z,99240.22
2023-04-18T04:39:41.320Z,99236.31
2023-04-18T04:42:14.304Z,99240.78
2023-04-18T04:44:48.792Z,99237.97
2023-04-18T04:47:21.985Z,99237.13
2023-04-18T04:49:55.530Z,99245.03
2023-04-18T04:52:28.613Z,99250.06
2023-04-18T04:55:01.680Z,99246.44
2023-04-18T04:57:34.741Z,99244.72
2023-04-18T05:00:10.307Z,99250.34
2023-04-18T05:02:43.391Z,99247.38
2023-04-18T05:05:16.836Z,99240.66
2023-04-18T05:07:49.915Z,99248.91
2023-04-18T05:10:23.225Z,99250.59
2023-04-18T05:12:56.693Z,99247.09
2023-04-18T05:15:31.490Z,99253.97
2023-04-18T05:18:06.226Z,99252.00
2023-04-18T05:20:39.670Z,99251.03
2023-04-18T05:23:13.466Z,99258.84
2023-04-18T05:25:46.401Z,99265.72
2023-04-18T05:28:19.405Z,99265.72
2023-04-18T05:31:01.131Z,99261.28
2023-04-18T05:33:34.561Z,99259.84
2023-04-18T05:36:07.811Z,99255.44
2023-04-18T05:38:40.785Z,99261.25
2023-04-18T05:41:14.300Z,99272.34
2023-04-18T05:44:01.771Z,99272.91
2023-04-18T05:46:39.630Z,99278.81
2023-04-18T05:49:13.157Z,99281.50
2023-04-18T05:51:46.170Z,99274.72
2023-04-18T05:54:19.081Z,99283.41
2023-04-18T05:56:52.553Z,99276.50
2023-04-18T05:59:26.823Z,99280.09
2023-04-18T06:02:02.257Z,99270.81
2023-04-18T06:04:35.372Z,99279.84
2023-04-18T06:07:08.544Z,99278.63
2023-04-18T06:09:41.849Z,99278.81
2023-04-18T06:12:16.565Z,99277.97
2023-04-18T06:14:50.635Z,99274.47
2023-04-18T06:17:24.951Z,99276.16
2023-04-18T06:19:58.095Z,99276.16
2023-04-18T06:22:30.967Z,99271.94
2023-04-18T06:25:04.531Z,99266.63
2023-04-18T06:27:37.998Z,99270.00
2023-04-18T06:30:12.273Z,99269.69
2023-04-18T06:32:46.832Z,99268.31
2023-04-18T06:35:19.855Z,99267.31
2023-04-18T06:37:53.217Z,99269.41
2023-04-18T06:40:26.513Z,99266.19
2023-04-18T06:42:59.822Z,99262.09
2023-04-18T06:45:32.751Z,99265.94
2023-04-18T06:48:09.162Z,99257.78
2023-04-18T06:50:44.960Z,99263.50
2023-04-18T06:53:17.992Z,99260.16
2023-04-18T06:55:51.206Z,99265.50
2023-04-18T06:58:24.456Z,99269.97
2023-04-18T07:00:57.668Z,99273.88
2023-04-18T07:03:32.379Z,99272.78
2023-04-18T07:06:06.290Z,99276.44
2023-04-18T07:08:39.549Z,99277.13
2023-04-18T07:11:13.682Z,99281.94
2023-04-18T07:13:48.769Z,99275.56
2023-04-18T07:16:22.181Z,99270.25
2023-04-18T07:18:56.777Z,99279.56
2023-04-18T07:21:29.921Z,99279.50
2023-04-18T07:24:03.141Z,99281.88
2023-04-18T07:26:36.626Z,99281.31
2023-04-18T07:29:09.645Z,99277.16
2023-04-18T07:31:42.652Z,99276.03
2023-04-18T07:34:17.400Z,99269.66
2023-04-18T07:36:51.504Z,99262.81
2023-04-18T07:39:24.800Z,99265.78
2023-04-18T07:41:57.977Z,99258.63
2023-04-18T07:44:30.994Z,99267.44
2023-04-18T07:47:04.099Z,99263.72
2023-04-18T07:49:39.735Z,99270.69
2023-04-18T07:52:13.256Z,99277.53
2023-04-18T07:54:46.578Z,99285.16
2023-04-18T07:57:19.608Z,99281.03
2023-04-18T07:59:54.012Z,99279.22
2023-04-18T08:02:27.040Z,99279.06
2023-04-18T08:05:01.535Z,99279.69
2023-04-18T08:07:34.762Z,99280.66
2023-04-18T08:10:08.611Z,99288.88
2023-04-18T08:12:43.555Z,99284.03
2023-04-18T08:15:17.194Z,99281.91
2023-04-18T08:17:50.304Z,99278.25
2023-04-18T08:20:24.686Z,99275.13
2023-04-18T08:23:07.551Z,99291.81
2023-04-18T08:25:41.795Z,99293.56
2023-04-18T08:28:15.134Z,99293.16
2023-04-18T08:30:49.224Z,99297.97
2023-04-18T08:33:22.839Z,99299.72
2023-04-18T08:35:57.487Z,99299.25
2023-04-18T08:38:30.713Z,99293.50
2023-04-18T08:41:04.108Z,99293.88
2023-04-18T08:43:38.580Z,99299.88
2023-04-18T08:46:11.881Z,99298.97
2023-04-18T08:48:45.146Z,99301.59
2023-04-18T08:51:19.738Z,99296.25
2023-04-18T08:53:54.254Z,99297.94
2023-04-18T08:56:27.352Z,99296.69
2023-04-18T08:59:00.885Z,99302.72
2023-04-18T09:01:50.645Z,99302.72
2023-04-18T09:04:37.015Z,99299.38
2023-04-18T09:07:12.233Z,99298.91
2023-04-18T09:09:46.368Z,99303.91
2023-04-18T09:12:23.413Z,99303.81
2023-04-18T09:14:58.023Z,99302.50
2023-04-18T09:17:37.001Z,99293.91
2023-04-18T09:20:11.331Z,99293.63
2023-04-18T09:22:48.630Z,99302.53
2023-04-18T09:25:26.167Z,99299.22
2023-04-18T09:28:02.020Z,99310.66
2023-04-18T09:30:37.832Z,99314.75
2023-04-18T09:33:11.038Z,99314.75
2023-04-18T09:35:44.212Z,99308.63
2023-04-18T09:38:18.479Z,99309.59
2023-04-18T09:41:07.852Z,99304.84
2023-04-18T09:43:41.069Z,99303.34
2023-04-18T09:46:14.630Z,99299.13
2023-04-18T09:48:47.899Z,99311.94
2023-04-18T09:51:21.009Z,99301.38
2023-04-18T09:53:56.349Z,99310.00
2023-04-18T09:56:32.033Z,99300.75
2023-04-18T09:59:08.367Z,99294.59
2023-04-18T10:01:41.890Z,99303.53
2023-04-18T10:04:17.419Z,99311.31
2023-04-18T10:06:50.776Z,99306.47
2023-04-18T10:09:25.481Z,99302.31
2023-04-18T10:12:00.147Z,99314.28
2023-04-18T10:14:34.878Z,99303.38
2023-04-18T10:17:08.263Z,99302.50
2023-04-18T10:19:42.097Z,99296.19
2023-04-18T10:22:15.182Z,99294.44
2023-04-18T10:24:54.126Z,99296.25
2023-04-18T10:27:45.723Z,99287.50
2023-04-18T10:30:19.328Z,99279.47
2023-04-18T10:32:56.103Z,99288.44
2023-04-18T10:35:29.588Z,99280.72
2023-04-18T10:38:03.112Z,99284.31
2023-04-18T10:40:37.732Z,99292.03
2023-04-18T10:43:13.375Z,99274.22
2023-04-18T10:45:46.421Z,99279.00
2023-04-18T10:48:29.407Z,99278.34
2023-04-18T10:51:15.887Z,99280.34
2023-04-18T10:53:50.991Z,99270.31
2023-04-18T10:56:28.081Z,99269.59
2023-04-18T10:59:03.338Z,99270.94
2023-04-18T11:01:38.586Z,99270.09
2023-04-18T11:04:13.099Z,99255.22
2023-04-18T11:06:50.496Z,99253.69
2023-04-18T11:09:23.576Z,99253.38
2023-04-18T11:12:06.238Z,99257.56
2023-04-18T11:14:41.087Z,99245.34
2023-04-18T11:17:18.452Z,99252.69
2023-04-18T11:19:51.417Z,99255.16
2023-04-18T11:22:24.772Z,99255.72
2023-04-18T11:25:01.843Z,99261.06
2023-04-18T11:27:36.487Z,99256.03
2023-04-18T11:30:10.058Z,99248.63
2023-04-18T11:32:43.058Z,99245.94
2023-04-18T11:35:17.414Z,99230.25
2023-04-18T11:37:51.310Z,99219.91
2023-04-18T11:40:24.582Z,99220.66
2023-04-18T11:43:01.901Z,99223.31
2023-04-18T11:45:35.536Z,99228.44
2023-04-18T11:48:09.153Z,99237.97
2023-04-18T11:50:42.275Z,99240.69
2023-04-18T11:53:15.468Z,99230.53
2023-04-18T11:55:55.818Z,99237.13
2023-04-18T11:58:34.042Z,99240.06
2023-04-18T12:01:17.707Z,99232.66
2023-04-18T12:04:01.168Z,99235.28
2023-04-18T12:06:49.631Z,99237.75
2023-04-18T12:09:24.574Z,99228.69
2023-04-18T12:11:59.824Z,99230.78
2023-04-18T12:14:36.599Z,99215.94
2023-04-18T12:17:10.418Z,99217.72
2023-04-18T12:19:48.579Z,99220.66
2023-04-18T12:22:37.511Z,99215.28
2023-04-18T12:25:13.963Z,99209.06
2023-04-18T12:27:50.952Z,99214.56
2023-04-18T12:30:26.839Z,99207.78
2023-04-18T12:33:01.170Z,99207.78
2023-04-18T12:35:34.181Z,99196.31
2023-04-18T12:38:07.180Z,99198.38
2023-04-18T12:40:40.505Z,99196.66
2023-04-18T12:43:13.500Z,99188.56
2023-04-18T12:45:48.204Z,99187.38
2023-04-18T12:48:21.439Z,99185.00
2023-04-18T12:50:54.678Z,99184.91
2023-04-18T12:53:27.603Z,99197.03
2023-04-18T12:56:00.613Z,99190.41
2023-04-18T12:58:33.860Z,99195.69
2023-04-18T13:01:09.481Z,99202.22
2023-04-18T13:03:42.940Z,99207.09
2023-04-18T13:06:16.232Z,99212.94
2023-04-18T13:08:49.183Z,99210.44
2023-04-18T13:11:22.673Z,99224.41
2023-04-18T13:13:56.170Z,99225.00
2023-04-18T13:16:31.917Z,99226.47
2023-04-18T13:19:05.559Z,99229.47
2023-04-18T13:21:38.566Z,99237.31
2023-04-18T13:24:11.994Z,99230.38
2023-04-18T13:26:45.179Z,99241.81
2023-04-18T13:29:18.178Z,99244.47
2023-04-18T13:31:53.842Z,99242.00
2023-04-18T13:34:27.014Z,99242.31
2023-04-18T13:37:00.036Z,99246.56
2023-04-18T13:39:33.744Z,99253.97
2023-04-18T13:42:07.689Z,99263.38
2023-04-18T13:44:40.760Z,99263.41
2023-04-18T13:47:15.452Z,99273.00
2023-04-18T13:49:48.717Z,99275.16
2023-04-18T13:52:21.722Z,99269.91
2023-04-18T13:54:54.731Z,99260.84
2023-04-18T13:57:28.560Z,99244.25
2023-04-18T14:00:01.780Z,99233.63
2023-04-18T14:02:36.458Z,99237.44
2023-04-18T14:05:10.711Z,99160.72
2023-04-18T14:07:44.075Z,99197.59
2023-04-18T14:10:17.453Z,99181.13
2023-04-18T14:12:51.230Z,99172.25
2023-04-18T14:15:24.934Z,99173.25
2023-04-18T14:18:01.079Z,99160.69
2023-04-18T14:20:35.272Z,99158.22
2023-04-18T14:23:08.315Z,99147.53
2023-04-18T14:25:41.400Z,99144.50
2023-04-18T14:28:14.712Z,99155.59
2023-04-18T14:30:47.692Z,99153.44
2023-04-18T14:33:26.218Z,99158.13
2023-04-18T14:35:59.695Z,99146.25
2023-04-18T14:38:32.665Z,99134.69
2023-04-18T14:41:05.851Z,99123.63
2023-04-18T14:43:39.105Z,99134.53
2023-04-18T14:46:13.212Z,99147.59
2023-04-18T14:48:48.902Z,99158.38
2023-04-18T14:51:21.895Z,99171.91
2023-04-18T14:53:55.582Z,99163.09
2023-04-18T14:56:28.584Z,99164.94
2023-04-18T14:59:02.529Z,99163.50
2023-04-18T15:01:36.319Z,99157.00
2023-04-18T15:04:11.480Z,99168.81
2023-04-18T15:06:44.784Z,99166.47
2023-04-18T15:09:18.008Z,99165.34
2023-04-18T15:11:51.728Z,99165.56
2023-04-18T15:14:25.518Z,99161.50
2023-04-18T15:16:59.506Z,99161.28
2023-04-18T15:19:34.567Z,99169.22
2023-04-18T15:22:07.730Z,99163.34
2023-04-18T15:24:41.380Z,99162.66
2023-04-18T15:27:14.372Z,99166.31
2023-04-18T15:29:47.741Z,99161.97
2023-04-18T15:32:21.248Z,99165.00
2023-04-18T15:34:56.052Z,99162.19
2023-04-18T15:37:28.951Z,99165.78
2023-04-18T15:40:02.202Z,99159.31
2023-04-18T15:42:37.179Z,99157.25
2023-04-18T15:45:11.704Z,99164.19
2023-04-18T15:47:45.250Z,99157.47
2023-04-18T15:50:19.766Z,99166.69
2023-04-18T15:52:52.772Z,99168.16
2023-04-18T15:55:25.968Z,99167.09
2023-04-18T15:57:58.971Z,99165.78
2023-04-18T16:00:32.359Z,99176.47
2023-04-18T16:03:06.708Z,99168.44
2023-04-18T16:05:41.192Z,99172.97
2023-04-18T16:08:14.040Z,99177.16
2023-04-18T16:10:47.424Z,99175.91
2023-04-18T16:13:21.156Z,99183.25
2023-04-18T16:15:55.110Z,99184.34
2023-04-18T16:18:28.416Z,99184.38
2023-04-18T16:21:02.985Z,99181.88
2023-04-18T16:23:36.356Z,99175.03
2023-04-18T16:26:09.832Z,99184.22
2023-04-18T16:28:42.977Z,99183.03
2023-04-18T16:31:16.618Z,99180.72
2023-04-18T16:33:52.725Z,99186.59
2023-04-18T16:36:27.535Z,99174.63
2023-04-18T16:39:00.435Z,99174.94
2023-04-18T16:41:33.522Z,99178.06
2023-04-18T16:44:06.792Z,99169.88
2023-04-18T16:46:39.952Z,99174.72
2023-04-18T16:49:13.021Z,99177.59
2023-04-18T16:51:47.475Z,99191.94
2023-04-18T16:54:20.547Z,99174.31
2023-04-18T16:56:53.792Z,99177.22
2023-04-18T16:59:27.233Z,99176.94
2023-04-18T17:02:00.624Z,99178.72
2023-04-18T17:04:34.299Z,99184.53
2023-04-18T17:07:09.705Z,99176.94
2023-04-18T17:09:42.909Z,99180.31
2023-04-18T17:12:16.761Z,99173.84
2023-04-18T17:14:50.765Z,99176.31
2023-04-18T17:17:24.550Z,99177.81
2023-04-18T17:19:58.717Z,99182.31
2023-04-18T17:22:33.242Z,99186.84
2023-04-18T17:25:07.906Z,99178.09
2023-04-18T17:27:41.646Z,99190.75
2023-04-18T17:30:14.787Z,99190.47
2023-04-18T17:32:48.111Z,99192.19
2023-04-18T17:35:21.366Z,99190.63
2023-04-18T17:37:55.975Z,99193.34
2023-04-18T17:40:29.777Z,99196.97
2023-04-18T17:43:03.246Z,99201.44
2023-04-18T17:45:37.298Z,99202.31
2023-04-18T17:48:10.530Z,99215.22
2023-04-18T17:50:43.939Z,99205.72
2023-04-18T17:53:18.183Z,99215.97
2023-04-18T17:55:52.306Z,99221.16
2023-04-18T17:58:25.960Z,99226.66
2023-04-18T18:00:58.947Z,99228.19
2023-04-18T18:03:32.074Z,99226.97
2023-04-18T18:06:05.897Z,99221.00
2023-04-18T18:08:40.622Z,99219.75
2023-04-18T18:11:14.369Z,99229.44
2023-04-18T18:13:47.728Z,99225.25
2023-04-18T18:16:20.668Z,99231.28
2023-04-18T18:18:53.933Z,99235.00
2023-04-18T18:21:27.328Z,99230.16
2023-04-18T18:24:01.617Z,99227.63
2023-04-18T18:26:35.371Z,99222.84
2023-04-18T18:29:11.178Z,99218.63
2023-04-18T18:31:44.277Z,99219.47
2023-04-18T18:34:17.385Z,99225.81
2023-04-18T18:36:50.350Z,99230.00
2023-04-18T18:39:25.094Z,99226.19
2023-04-18T18:41:59.380Z,99222.13
2023-04-18T18:44:32.473Z,99225.66
2023-04-18T18:47:05.903Z,99221.91
2023-04-18T18:49:39.129Z,99225.81
2023-04-18T18:52:12.315Z,99228.47
2023-04-18T18:54:47.170Z,99228.06
2023-04-18T18:57:20.918Z,99234.41
2023-04-18T18:59:55.836Z,99235.41
2023-04-18T19:02:29.570Z,99226.91
2023-04-18T19:05:03.951Z,99237.44
2023-04-18T19:07:37.813Z,99234.69
2023-04-18T19:10:13.017Z,99235.31
2023-04-18T19:12:47.459Z,99233.19
2023-04-18T19:15:20.955Z,99226.59
2023-04-18T19:17:54.443Z,99232.25
2023-04-18T19:20:29.160Z,99230.09
2023-04-18T19:23:03.051Z,99230.41
2023-04-18T19:25:37.846Z,99227.50
2023-04-18T19:28:11.055Z,99225.19
2023-04-18T19:30:44.391Z,99231.38
2023-04-18T19:33:17.802Z,99231.66
2023-04-18T19:35:50.962Z,99229.56
2023-04-18T19:38:24.533Z,99230.28
2023-04-18T19:40:59.271Z,99235.47
2023-04-18T19:43:32.668Z,99236.41
2023-04-18T19:46:06.265Z,99229.94
2023-04-18T19:48:39.625Z,99235.03
2023-04-18T19:51:12.846Z,99231.94
2023-04-18T19:53:46.949Z,99237.31
2023-04-18T19:56:21.648Z,99230.84
2023-04-18T19:58:55.422Z,99229.16
2023-04-18T20:01:28.575Z,99228.47
2023-04-18T20:04:02.248Z,99228.56
2023-04-18T20:06:36.495Z,99228.03
2023-04-18T20:09:15.591Z,99230.13
2023-04-18T20:12:02.151Z,99225.72
2023-04-18T20:14:36.104Z,99231.00
2023-04-18T20:17:09.948Z,99225.78
2023-04-18T20:19:43.013Z,99232.13
2023-04-18T20:22:16.381Z,99226.63
2023-04-18T20:24:49.631Z,99220.47
2023-04-18T20:27:24.869Z,99229.50
2023-04-18T20:29:58.176Z,99224.84
2023-04-18T20:32:32.193Z,99223.44
2023-04-18T20:35:05.493Z,99223.75
2023-04-18T20:37:39.112Z,99217.72
2023-04-18T20:40:12.192Z,99220.22
2023-04-18T20:42:46.804Z,99217.84
2023-04-18T20:45:21.868Z,99220.13
2023-04-18T20:47:54.993Z,99213.63
2023-04-18T20:50:28.124Z,99209.66
2023-04-18T20:53:02.264Z,99211.19
2023-04-18T20:55:35.382Z,99212.72
2023-04-18T20:58:10.197Z,99215.66
2023-04-18T21:00:43.804Z,99213.75
2023-04-18T21:03:17.229Z,99205.47
2023-04-18T21:05:50.537Z,99208.13
2023-04-18T21:08:23.906Z,99209.94
2023-04-18T21:10:57.145Z,99202.91
2023-04-18T21:13:32.945Z,99202.13
2023-04-18T21:16:08.010Z,99200.59
2023-04-18T21:18:41.151Z,99188.78
2023-04-18T21:21:14.076Z,99190.06
2023-04-18T21:23:47.294Z,99190.47
2023-04-18T21:26:20.600Z,99196.34
2023-04-18T21:28:57.251Z,99194.53
2023-04-18T21:31:30.998Z,99191.59
2023-04-18T21:34:04.750Z,99195.25
2023-04-18T21:36:40.084Z,99199.03
2023-04-18T21:39:13.647Z,99197.25
2023-04-18T21:41:46.890Z,99188.78
2023-04-18T21:44:21.237Z,99198.16
2023-04-18T21:46:54.364Z,99197.25
2023-04-18T21:49:27.505Z,99194.06
2023-04-18T21:52:00.620Z,99196.56
2023-04-18T21:54:33.667Z,99196.09
2023-04-18T21:57:07.083Z,99197.41
2023-04-18T21:59:43.416Z,99195.34
2023-04-18T22:02:16.468Z,99192.31
2023-04-18T22:04:49.513Z,99196.50
2023-04-18T22:07:24.670Z,99196.97
2023-04-18T22:09:59.862Z,99205.13
2023-04-18T22:12:34.182Z,99200.47
2023-04-18T22:15:10.544Z,99201.34
2023-04-18T22:17:44.918Z,99199.41
2023-04-18T22:20:18.459Z,99197.25
2023-04-18T22:22:51.847Z,99192.94
2023-04-18T22:25:25.008Z,99193.34
2023-04-18T22:27:57.928Z,99200.09
2023-04-18T22:30:32.733Z,99192.94
2023-04-18T22:33:05.797Z,99199.97
2023-04-18T22:35:38.850Z,99202.31
2023-04-18T22:38:12.009Z,99199.25
2023-04-18T22:40:45.389Z,99189.41
2023-04-18T22:43:22.736Z,99190.09
2023-04-18T22:45:57.416Z,99193.63
2023-04-18T22:48:31.210Z,99190.25
2023-04-18T22:51:04.898Z,99193.34
2023-04-18T22:53:37.947Z,99191.38
2023-04-18T22:56:11.049Z,99192.09
2023-04-18T22:58:43.898Z,99184.09
2023-04-18T23:01:18.709Z,99180.72
2023-04-18T23:03:51.999Z,99164.31
2023-04-18T23:06:27.621Z,99182.13
2023-04-18T23:09:01.007Z,99180.72
2023-04-18T23:11:34.378Z,99181.56
2023-04-18T23:14:08.667Z,99182.38
2023-04-18T23:16:43.972Z,99171.88
2023-04-18T23:19:17.179Z,99170.75
2023-04-18T23:21:50.322Z,99173.28
2023-04-18T23:24:23.278Z,99176.38
2023-04-18T23:26:57.106Z,99179.72
2023-04-18T23:29:29.970Z,99176.22
2023-04-18T23:32:04.751Z,99175.41
2023-04-18T23:34:37.990Z,99167.22
2023-04-18T23:37:11.126Z,99162.91
2023-04-18T23:39:44.092Z,99168.09
2023-04-18T23:42:17.661Z,99162.06
2023-04-18T23:44:51.320Z,99166.16
2023-04-18T23:47:25.628Z,99160.66
2023-04-18T23:49:58.832Z,99163.19
2023-04-18T23:52:32.042Z,99156.31
2023-04-18T23:55:05.176Z,99154.19
2023-04-18T23:57:38.437Z,99149.84
